Wattsville, Virginia
Current Conditions -  °F | °C
As of 2:54 PM on Saturday 20 Dec 2014 (Local Time) from KWAL Reporting Station
Overcast Overcast  
Wind Chill: 37°   Ceiling: 10000
Heat Index: 37°   Visibility: 10mi
Dew Point: 25°   Wind: 3mph
Humidity: 62%   Direction: 340°NNW
Pressure: 30.27"   Gusts: NA
Location:  37.93°N, 75.5°W
Report Text: KWAL 201954Z AUTO 34003KT 10SM OVC100 03/M04 A3027 RMK AO2 SLP247 T00281039
Loading
Personal Weather Stations






























Interactive Weather Map New forecast layout! Learn more

10-Day Weather Forecast

Advertisements
Track Severe Weather on mobile